createdAt,value
2018-06-05T00:02:09.157Z,10.87
2018-06-05T00:04:38.909Z,11.30
2018-06-05T00:07:08.707Z,11.07
2018-06-05T00:09:37.716Z,11.03
2018-06-05T00:12:07.165Z,10.20
2018-06-05T00:14:38.153Z,12.07
2018-06-05T00:17:07.154Z,10.60
2018-06-05T00:19:36.818Z,10.93
2018-06-05T00:22:05.757Z,9.73
2018-06-05T00:24:34.745Z,12.33
2018-06-05T00:27:05.280Z,11.67
2018-06-05T00:29:34.362Z,10.77
2018-06-05T00:32:03.914Z,10.20
2018-06-05T00:34:32.934Z,10.57
2018-06-05T00:37:03.231Z,11.90
2018-06-05T00:39:33.788Z,10.90
2018-06-05T00:42:04.108Z,12.17
2018-06-05T00:44:34.483Z,12.53
2018-06-05T00:47:04.706Z,13.60
2018-06-05T00:49:37.160Z,11.97
2018-06-05T00:52:07.711Z,12.57
2018-06-05T00:54:40.448Z,12.97
2018-06-05T00:57:09.893Z,11.70
2018-06-05T00:59:39.680Z,12.43
2018-06-05T01:02:09.613Z,11.67
2018-06-05T01:04:38.719Z,11.90
2018-06-05T01:07:09.254Z,12.83
2018-06-05T01:09:38.243Z,13.57
2018-06-05T01:12:08.569Z,14.80
2018-06-05T01:14:38.178Z,13.60
2018-06-05T01:17:07.789Z,14.77
2018-06-05T01:19:36.777Z,13.33
2018-06-05T01:22:07.554Z,14.60
2018-06-05T01:24:38.764Z,14.10
2018-06-05T01:27:13.370Z,13.80
2018-06-05T01:29:43.473Z,12.60
2018-06-05T01:32:13.531Z,13.50
2018-06-05T01:34:46.483Z,15.20
2018-06-05T01:37:16.810Z,13.17
2018-06-05T01:39:45.726Z,13.07
2018-06-05T01:42:15.133Z,13.30
2018-06-05T01:44:44.065Z,13.97
2018-06-05T01:47:13.075Z,14.70
2018-06-05T01:49:42.522Z,14.50
2018-06-05T01:52:11.622Z,14.37
2018-06-05T01:54:41.213Z,13.80
2018-06-05T01:57:12.456Z,13.90
2018-06-05T01:59:42.512Z,13.43
2018-06-05T02:02:12.720Z,13.40
2018-06-05T02:04:43.046Z,13.13
2018-06-05T02:07:12.591Z,13.57
2018-06-05T02:09:41.746Z,14.43
2018-06-05T02:12:11.723Z,13.83
2018-06-05T02:14:40.758Z,13.77
2018-06-05T02:17:09.748Z,14.00
2018-06-05T02:19:39.556Z,14.73
2018-06-05T02:22:08.780Z,13.40
2018-06-05T02:24:39.294Z,14.37
2018-06-05T02:27:08.374Z,14.33
2018-06-05T02:29:37.306Z,14.20
2018-06-05T02:32:07.813Z,13.37
2018-06-05T02:34:36.924Z,15.33
2018-06-05T02:37:05.897Z,13.80
2018-06-05T02:39:35.042Z,13.67
2018-06-05T02:42:04.409Z,14.87
2018-06-05T02:44:33.378Z,14.87
2018-06-05T02:47:02.490Z,14.17
2018-06-05T02:49:32.050Z,14.37
2018-06-05T02:52:01.497Z,14.87
2018-06-05T02:54:32.774Z,15.97
2018-06-05T02:57:02.008Z,15.20
2018-06-05T02:59:31.854Z,16.23
2018-06-05T03:02:03.595Z,14.27
2018-06-05T03:04:33.189Z,15.87
2018-06-05T03:07:02.112Z,14.70
2018-06-05T03:09:31.997Z,15.77
2018-06-05T03:12:01.791Z,16.37
2018-06-05T03:14:32.789Z,15.93
2018-06-05T03:17:03.322Z,16.90
2018-06-05T03:19:33.599Z,16.60
2018-06-05T03:22:02.638Z,16.30
2018-06-05T03:24:33.062Z,17.97
2018-06-05T03:27:03.612Z,16.00
2018-06-05T03:29:33.609Z,16.03
2018-06-05T03:32:03.639Z,15.93
2018-06-05T03:34:32.988Z,16.37
2018-06-05T03:37:02.845Z,16.43
2018-06-05T03:39:32.499Z,17.07
2018-06-05T03:42:03.086Z,17.73
2018-06-05T03:44:32.069Z,17.30
2018-06-05T03:47:02.198Z,16.87
2018-06-05T03:49:37.227Z,18.60
2018-06-05T03:52:06.534Z,17.37
2018-06-05T03:54:36.344Z,18.13
2018-06-05T03:57:05.988Z,17.77
2018-06-05T03:59:35.635Z,17.73
2018-06-05T04:02:04.558Z,18.33
2018-06-05T04:04:34.670Z,17.87
2018-06-05T04:07:04.511Z,18.40
2018-06-05T04:09:33.570Z,18.30
2018-06-05T04:12:04.469Z,18.13
2018-06-05T04:14:34.639Z,16.60
2018-06-05T04:17:06.825Z,19.37
2018-06-05T04:19:36.788Z,19.50
2018-06-05T04:22:08.404Z,19.20
2018-06-05T04:24:37.377Z,18.97
2018-06-05T04:27:07.623Z,17.67
2018-06-05T04:29:37.302Z,16.10
2018-06-05T04:32:09.186Z,16.57
2018-06-05T04:34:39.398Z,17.27
2018-06-05T04:37:08.418Z,16.30
2018-06-05T04:39:38.337Z,15.43
2018-06-05T04:42:08.281Z,15.03
2018-06-05T04:44:37.221Z,15.63
2018-06-05T04:47:06.214Z,16.27
2018-06-05T04:49:39.301Z,17.93
2018-06-05T04:52:08.431Z,17.33
2018-06-05T04:54:39.218Z,16.77
2018-06-05T04:57:08.354Z,15.80
2018-06-05T04:59:37.433Z,14.77
2018-06-05T05:02:06.741Z,13.90
2018-06-05T05:04:36.129Z,14.20
2018-06-05T05:07:05.225Z,13.97
2018-06-05T05:09:34.441Z,13.17
2018-06-05T05:12:09.869Z,13.50
2018-06-05T05:14:40.173Z,12.53
2018-06-05T05:17:11.146Z,12.07
2018-06-05T05:19:40.185Z,12.87
2018-06-05T05:22:09.850Z,12.27
2018-06-05T05:24:41.235Z,11.83
2018-06-05T05:29:51.129Z,12.47
2018-06-05T05:32:21.834Z,12.93
2018-06-05T05:34:53.527Z,12.47
2018-06-05T05:37:23.441Z,12.77
2018-06-05T05:39:53.234Z,12.93
2018-06-05T05:42:22.253Z,13.47
2018-06-05T05:44:51.212Z,12.87
2018-06-05T05:47:21.089Z,14.13
2018-06-05T05:49:52.665Z,13.13
2018-06-05T05:52:22.177Z,13.47
2018-06-05T05:55:00.239Z,15.17
2018-06-05T05:57:31.201Z,14.30
2018-06-05T06:00:00.235Z,13.03
2018-06-05T06:02:29.114Z,13.57
2018-06-05T06:04:59.023Z,13.53
2018-06-05T06:07:29.818Z,13.73
2018-06-05T06:09:58.983Z,13.23
2018-06-05T06:12:28.634Z,12.27
2018-06-05T06:14:58.018Z,16.73
2018-06-05T06:17:28.041Z,14.00
2018-06-05T06:19:58.681Z,12.70
2018-06-05T06:22:27.978Z,15.07
2018-06-05T06:24:57.214Z,12.70
2018-06-05T06:27:26.832Z,12.97
2018-06-05T06:29:55.832Z,13.20
2018-06-05T06:32:25.502Z,12.53
2018-06-05T06:34:54.585Z,12.93
2018-06-05T06:37:24.280Z,12.60
2018-06-05T06:39:54.069Z,12.33
2018-06-05T06:42:22.994Z,12.17
2018-06-05T06:45:00.138Z,13.73
2018-06-05T06:47:29.511Z,12.90
2018-06-05T06:49:58.552Z,13.85
2018-06-05T06:52:33.405Z,13.75
2018-06-05T06:55:04.565Z,12.73
2018-06-05T06:57:33.642Z,12.27
2018-06-05T07:00:03.462Z,13.13
2018-06-05T07:02:32.462Z,11.50
2018-06-05T07:05:01.455Z,12.18
2018-06-05T07:07:30.426Z,14.53
2018-06-05T07:09:59.379Z,14.80
2018-06-05T07:12:29.554Z,13.08
2018-06-05T07:15:00.075Z,12.63
2018-06-05T07:17:29.069Z,13.00
2018-06-05T07:20:12.671Z,12.77
2018-06-05T07:22:41.687Z,11.90
2018-06-05T07:25:10.960Z,14.17
2018-06-05T07:27:41.591Z,12.95
2018-06-05T07:30:12.632Z,13.50
2018-06-05T07:32:42.318Z,11.67
2018-06-05T07:35:11.646Z,11.03
2018-06-05T07:37:41.416Z,12.80
2018-06-05T07:40:11.388Z,12.53
2018-06-05T07:42:41.553Z,12.93
2018-06-05T07:45:11.177Z,12.65
2018-06-05T07:47:42.042Z,11.65
2018-06-05T07:50:11.866Z,13.47
2018-06-05T07:52:42.223Z,15.97
2018-06-05T07:55:11.681Z,11.95
2018-06-05T07:57:40.799Z,11.13
2018-06-05T08:00:10.617Z,11.93
2018-06-05T08:02:39.545Z,13.32
2018-06-05T08:05:10.073Z,11.75
2018-06-05T08:07:39.052Z,12.28
2018-06-05T08:10:11.055Z,12.35
2018-06-05T08:12:41.150Z,11.40
2018-06-05T08:15:11.368Z,12.37
2018-06-05T08:17:42.677Z,13.35
2018-06-05T08:20:12.124Z,11.25
2018-06-05T08:22:46.630Z,12.40
2018-06-05T08:25:15.550Z,12.73
2018-06-05T08:27:56.705Z,11.38
2018-06-05T08:30:26.222Z,12.00
2018-06-05T08:33:02.486Z,12.28
2018-06-05T08:35:31.405Z,11.70
2018-06-05T08:38:04.883Z,10.78
2018-06-05T08:40:33.882Z,11.75
2018-06-05T08:43:03.434Z,11.22
2018-06-05T08:45:33.751Z,10.78
2018-06-05T08:48:03.346Z,11.90
2018-06-05T08:50:34.165Z,11.12
2018-06-05T08:53:03.172Z,12.37
2018-06-05T08:55:32.546Z,12.23
2018-06-05T08:58:03.301Z,11.60
2018-06-05T09:00:43.635Z,12.27
2018-06-05T09:03:14.568Z,12.33
2018-06-05T09:05:43.661Z,12.30
2018-06-05T09:08:13.680Z,12.77
2018-06-05T09:10:43.550Z,10.67
2018-06-05T09:13:13.280Z,11.43
2018-06-05T09:15:42.930Z,11.88
2018-06-05T09:18:11.917Z,10.43
2018-06-05T09:20:40.883Z,13.40
2018-06-05T09:23:10.586Z,10.23
2018-06-05T09:25:41.558Z,10.60
2018-06-05T09:28:11.601Z,13.53
2018-06-05T09:30:40.774Z,10.78
2018-06-05T09:33:11.300Z,12.68
2018-06-05T09:35:43.144Z,11.40
2018-06-05T09:38:12.120Z,11.90
2018-06-05T09:40:42.400Z,11.48
2018-06-05T09:43:12.014Z,10.43
2018-06-05T09:45:46.270Z,10.15
2018-06-05T09:48:17.581Z,9.95
2018-06-05T09:50:47.236Z,9.95
2018-06-05T09:53:18.405Z,8.98
2018-06-05T09:55:48.847Z,10.50
2018-06-05T09:58:19.923Z,10.30
2018-06-05T10:00:53.553Z,10.20
2018-06-05T10:03:22.617Z,8.48
2018-06-05T10:05:53.310Z,10.20
2018-06-05T10:08:22.328Z,9.18
2018-06-05T10:11:55.827Z,9.18
2018-06-05T10:14:24.768Z,9.78
2018-06-05T10:16:53.807Z,9.65
2018-06-05T10:19:25.980Z,9.58
2018-06-05T10:24:52.221Z,9.78
2018-06-05T10:27:22.465Z,9.68
2018-06-05T10:29:55.997Z,9.20
2018-06-05T10:32:25.746Z,9.05
2018-06-05T10:34:54.840Z,8.80
2018-06-05T10:37:25.791Z,9.13
2018-06-05T10:39:58.470Z,8.03
2018-06-05T10:42:43.627Z,8.58
2018-06-05T10:45:14.286Z,7.60
2018-06-05T10:47:43.982Z,7.97
2018-06-05T10:50:14.834Z,7.67
2018-06-05T10:52:47.218Z,7.00
2018-06-05T10:55:16.297Z,7.10
2018-06-05T10:57:48.471Z,7.53
2018-06-05T11:00:19.486Z,6.93
2018-06-05T11:02:53.367Z,6.90
2018-06-05T11:05:27.826Z,7.27
2018-06-05T11:07:59.078Z,7.03
2018-06-05T11:10:30.836Z,7.00
2018-06-05T11:13:03.679Z,7.20
2018-06-05T11:15:35.391Z,7.00
2018-06-05T11:18:08.108Z,6.70
2018-06-05T11:20:41.732Z,7.10
2018-06-05T11:23:18.919Z,7.17
2018-06-05T11:25:48.045Z,7.42
2018-06-05T11:28:17.981Z,7.13
2018-06-05T11:30:58.946Z,6.50
2018-06-05T11:33:28.951Z,6.27
2018-06-05T11:36:10.044Z,6.30
2018-06-05T11:41:29.562Z,6.27
2018-06-05T11:44:00.176Z,6.35
2018-06-05T11:49:27.501Z,6.03
2018-06-05T11:52:00.325Z,6.10
2018-06-05T11:54:32.587Z,6.37
2018-06-05T11:57:18.233Z,6.35
2018-06-05T11:59:48.804Z,6.20
2018-06-05T12:05:11.886Z,5.85
2018-06-05T12:07:42.524Z,6.65
2018-06-05T12:10:22.457Z,5.95
2018-06-05T12:12:56.558Z,6.72
2018-06-05T12:15:27.214Z,6.45
2018-06-05T12:17:57.202Z,6.42
2018-06-05T12:20:27.462Z,6.58
2018-06-05T12:22:58.321Z,6.28
2018-06-05T12:25:33.904Z,6.33
2018-06-05T12:28:02.930Z,6.20
2018-06-05T12:30:33.270Z,6.30
2018-06-05T12:33:04.653Z,6.07
2018-06-05T12:35:36.165Z,6.27
2018-06-05T12:38:10.261Z,6.20
2018-06-05T12:40:42.137Z,6.03
2018-06-05T12:43:16.518Z,6.27
2018-06-05T12:45:46.047Z,6.43
2018-06-05T12:48:20.125Z,6.10
2018-06-05T12:50:50.254Z,5.85
2018-06-05T12:53:21.246Z,6.53
2018-06-05T12:55:51.955Z,6.70
2018-06-05T12:58:21.777Z,5.80
2018-06-05T13:00:53.401Z,6.60
2018-06-05T13:03:23.374Z,7.23
2018-06-05T13:05:53.853Z,7.40
2018-06-05T13:08:24.089Z,6.17
2018-06-05T13:10:55.158Z,6.37
2018-06-05T13:13:37.095Z,5.70
2018-06-05T13:16:12.340Z,6.33
2018-06-05T13:18:42.497Z,6.07
2018-06-05T13:21:24.738Z,7.93
2018-06-05T13:23:54.356Z,5.93
2018-06-05T13:26:24.014Z,6.17
2018-06-05T13:28:54.668Z,6.43
2018-06-05T13:31:26.767Z,6.53
2018-06-05T13:33:56.108Z,5.60
2018-06-05T13:36:25.736Z,6.00
2018-06-05T13:39:01.686Z,7.03
2018-06-05T13:41:30.891Z,6.03
2018-06-05T13:46:39.466Z,5.90
2018-06-05T13:49:13.872Z,5.87
2018-06-05T13:51:44.093Z,6.10
2018-06-05T13:57:05.210Z,5.80
2018-06-05T13:59:37.153Z,6.53
2018-06-05T14:02:11.420Z,5.50
2018-06-05T14:04:42.380Z,5.60
2018-06-05T14:07:11.305Z,5.07
2018-06-05T14:09:43.277Z,5.27
2018-06-05T14:12:13.232Z,5.57
2018-06-05T14:14:42.590Z,5.80
2018-06-05T14:17:11.783Z,5.80
2018-06-05T14:19:42.954Z,5.10
2018-06-05T14:22:13.754Z,5.53
2018-06-05T14:24:43.640Z,7.57
2018-06-05T14:27:17.189Z,5.33
2018-06-05T14:29:48.875Z,5.07
2018-06-05T14:32:19.534Z,5.50
2018-06-05T14:34:48.511Z,5.23
2018-06-05T14:37:20.794Z,5.30
2018-06-05T14:39:50.599Z,5.20
2018-06-05T14:42:19.695Z,5.17
2018-06-05T14:44:49.114Z,5.57
2018-06-05T14:47:18.426Z,5.60
2018-06-05T14:49:47.720Z,5.33
2018-06-05T14:52:16.655Z,5.13
2018-06-05T14:54:46.470Z,5.37
2018-06-05T14:57:18.011Z,5.90
2018-06-05T14:59:49.368Z,5.87
2018-06-05T15:02:18.824Z,6.47
2018-06-05T15:04:49.162Z,5.63
2018-06-05T15:07:18.910Z,6.97
2018-06-05T15:09:48.128Z,5.90
2018-06-05T15:12:24.257Z,6.10
2018-06-05T15:14:54.695Z,6.63
2018-06-05T15:17:24.626Z,29.20
2018-06-05T15:19:55.498Z,5.97
2018-06-05T15:22:33.567Z,11.33
2018-06-05T15:25:10.247Z,5.87
2018-06-05T15:27:42.306Z,7.87
2018-06-05T15:30:15.292Z,7.53
2018-06-05T15:32:45.693Z,7.67
2018-06-05T15:35:17.081Z,7.20
2018-06-05T15:37:46.761Z,7.77
2018-06-05T15:40:18.526Z,7.60
2018-06-05T15:42:48.854Z,7.17
2018-06-05T15:45:19.357Z,7.47
2018-06-05T15:47:50.937Z,9.17
2018-06-05T15:50:38.002Z,8.27
2018-06-05T15:53:11.318Z,8.37
2018-06-05T15:55:42.127Z,8.07
2018-06-05T15:58:11.094Z,8.57
2018-06-05T16:00:47.106Z,6.93
2018-06-05T16:03:16.166Z,7.50
2018-06-05T16:05:48.048Z,7.50
2018-06-05T16:08:17.801Z,7.27
2018-06-05T16:10:46.848Z,8.20
2018-06-05T16:13:17.230Z,7.43
2018-06-05T16:15:46.265Z,8.07
2018-06-05T16:18:17.933Z,7.50
2018-06-05T16:20:48.870Z,7.83
2018-06-05T16:23:37.872Z,8.07
2018-06-05T16:26:07.785Z,8.17
2018-06-05T16:28:42.302Z,8.40
2018-06-05T16:31:14.741Z,8.73
2018-06-05T16:33:46.174Z,8.10
2018-06-05T16:36:25.167Z,11.17
2018-06-05T16:38:55.395Z,9.57
2018-06-05T16:41:24.411Z,8.70
2018-06-05T16:43:53.538Z,10.30
2018-06-05T16:46:23.711Z,8.83
2018-06-05T16:48:54.834Z,8.43
2018-06-05T16:51:25.385Z,8.53
2018-06-05T16:53:58.218Z,9.90
2018-06-05T16:56:27.726Z,8.27
2018-06-05T16:58:56.658Z,8.47
2018-06-05T17:01:27.554Z,9.93
2018-06-05T17:03:59.667Z,9.00
2018-06-05T17:06:37.154Z,7.33
2018-06-05T17:09:09.431Z,9.10
2018-06-05T17:11:41.494Z,7.50
2018-06-05T17:14:11.773Z,9.03
2018-06-05T17:16:48.662Z,8.57
2018-06-05T17:19:17.812Z,9.50
2018-06-05T17:21:46.788Z,9.13
2018-06-05T17:24:15.691Z,7.87
2018-06-05T17:26:48.107Z,7.20
2018-06-05T17:29:18.128Z,7.80
2018-06-05T17:31:51.762Z,10.93
2018-06-05T17:34:25.550Z,9.47
2018-06-05T17:36:57.741Z,9.50
2018-06-05T17:39:28.579Z,10.23
2018-06-05T17:49:58.904Z,6.27
2018-06-05T17:52:28.544Z,7.60
2018-06-05T17:55:13.946Z,7.40
2018-06-05T17:57:43.555Z,7.27
2018-06-05T18:00:16.757Z,12.23
2018-06-05T18:02:45.737Z,8.40
2018-06-05T18:05:15.722Z,7.40
2018-06-05T18:07:49.546Z,7.53
2018-06-05T18:10:19.931Z,9.00
2018-06-05T18:12:50.210Z,6.53
2018-06-05T18:18:12.744Z,6.70
2018-06-05T18:20:41.855Z,6.93
2018-06-05T18:23:13.865Z,6.77
2018-06-05T18:25:46.678Z,7.00
2018-06-05T18:28:15.677Z,7.13
2018-06-05T18:30:46.317Z,7.73
2018-06-05T18:33:20.370Z,9.83
2018-06-05T18:40:09.105Z,6.77
2018-06-05T18:42:44.591Z,7.23
2018-06-05T18:45:16.093Z,7.10
2018-06-05T18:47:45.146Z,6.60
2018-06-05T18:50:14.244Z,6.57
2018-06-05T18:52:46.078Z,6.43
2018-06-05T18:55:15.047Z,7.03
2018-06-05T18:57:47.765Z,6.30
2018-06-05T19:00:16.766Z,9.60
2018-06-05T19:02:45.764Z,8.97
2018-06-05T19:05:17.371Z,6.83
2018-06-05T19:07:50.030Z,6.27
2018-06-05T19:10:19.660Z,5.73
2018-06-05T19:12:48.590Z,5.83
2018-06-05T19:15:19.655Z,7.20
2018-06-05T19:18:06.531Z,5.67
2018-06-05T19:21:19.369Z,6.07
2018-06-05T19:23:49.345Z,5.47
2018-06-05T19:26:19.110Z,6.40
2018-06-05T19:28:49.174Z,5.30
2018-06-05T19:31:19.792Z,5.40
2018-06-05T19:33:55.475Z,4.97
2018-06-05T19:36:27.667Z,5.07
2018-06-05T19:38:57.745Z,5.80
2018-06-05T19:41:31.613Z,5.17
2018-06-05T19:44:18.369Z,5.40
2018-06-05T19:46:49.450Z,5.60
2018-06-05T19:49:22.849Z,8.60
2018-06-05T19:51:53.564Z,21.87
2018-06-05T19:54:23.564Z,7.03
2018-06-05T19:57:05.563Z,8.23
2018-06-05T19:59:39.326Z,6.47
2018-06-05T20:02:12.459Z,5.27
2018-06-05T20:04:42.701Z,6.20
2018-06-05T20:07:11.981Z,5.50
2018-06-05T20:09:42.546Z,6.80
2018-06-05T20:12:14.355Z,5.27
2018-06-05T20:14:47.718Z,5.37
2018-06-05T20:17:17.611Z,7.10
2018-06-05T20:19:48.546Z,6.17
2018-06-05T20:22:19.365Z,7.57
2018-06-05T20:24:56.886Z,5.43
2018-06-05T20:27:27.787Z,9.57
2018-06-05T20:29:58.577Z,7.20
2018-06-05T20:32:29.088Z,7.20
2018-06-05T20:34:59.490Z,6.23
2018-06-05T20:37:33.381Z,6.50
2018-06-05T20:40:07.303Z,6.13
2018-06-05T20:42:38.851Z,7.63
2018-06-05T20:45:08.187Z,6.60
2018-06-05T20:47:37.866Z,7.20
2018-06-05T20:50:08.050Z,6.63
2018-06-05T20:52:41.068Z,6.90
2018-06-05T20:55:11.476Z,7.40
2018-06-05T20:57:45.253Z,7.33
2018-06-05T21:02:52.471Z,8.40
2018-06-05T21:05:23.142Z,8.30
2018-06-05T21:07:53.040Z,8.87
2018-06-05T21:10:22.705Z,10.60
2018-06-05T21:12:53.922Z,8.63
2018-06-05T21:15:25.745Z,8.77
2018-06-05T21:17:56.233Z,9.20
2018-06-05T21:20:27.279Z,9.50
2018-06-05T21:22:57.777Z,9.77
2018-06-05T21:25:26.740Z,10.33
2018-06-05T21:27:57.142Z,9.63
2018-06-05T21:30:33.914Z,9.70
2018-06-05T21:33:03.722Z,11.13
2018-06-05T21:35:34.775Z,8.77
2018-06-05T21:38:03.750Z,10.97
2018-06-05T21:40:32.812Z,9.13
2018-06-05T21:43:04.306Z,9.90
2018-06-05T21:45:36.619Z,9.53
2018-06-05T21:48:06.506Z,10.17
2018-06-05T21:50:36.414Z,12.33
2018-06-05T21:53:05.665Z,9.57
2018-06-05T21:55:34.607Z,9.87
2018-06-05T21:58:03.525Z,9.83
2018-06-05T22:00:33.501Z,9.33
2018-06-05T22:03:02.814Z,11.10
2018-06-05T22:05:31.805Z,10.07
2018-06-05T22:08:02.238Z,11.27
2018-06-05T22:10:32.921Z,10.97
2018-06-05T22:13:05.646Z,11.67
2018-06-05T22:15:35.641Z,11.50
2018-06-05T22:18:05.847Z,11.47
2018-06-05T22:20:40.707Z,11.83
2018-06-05T22:23:09.913Z,12.73
2018-06-05T22:25:41.303Z,11.83
2018-06-05T22:28:10.314Z,12.90
2018-06-05T22:30:40.273Z,12.70
2018-06-05T22:33:10.794Z,12.90
2018-06-05T22:35:39.731Z,12.93
2018-06-05T22:38:09.518Z,13.63
2018-06-05T22:40:40.546Z,12.40
2018-06-05T22:43:12.643Z,13.00
2018-06-05T22:45:43.773Z,14.20
2018-06-05T22:48:12.815Z,14.37
2018-06-05T22:50:42.169Z,14.20
2018-06-05T22:53:11.150Z,13.37
2018-06-05T22:55:40.750Z,13.40
2018-06-05T22:58:11.039Z,13.63
2018-06-05T23:00:40.416Z,14.07
2018-06-05T23:03:14.298Z,14.57
2018-06-05T23:05:45.442Z,12.30
2018-06-05T23:08:16.114Z,14.03
2018-06-05T23:10:45.070Z,12.60
2018-06-05T23:13:15.690Z,13.17
2018-06-05T23:15:44.601Z,12.93
2018-06-05T23:18:14.510Z,12.67
2018-06-05T23:20:45.138Z,14.53
2018-06-05T23:23:15.055Z,13.63
2018-06-05T23:25:44.766Z,13.50
2018-06-05T23:28:14.273Z,12.70
2018-06-05T23:30:43.974Z,15.63
2018-06-05T23:33:15.491Z,13.47
2018-06-05T23:35:48.493Z,14.37
2018-06-05T23:38:18.603Z,14.43
2018-06-05T23:40:49.203Z,15.10
2018-06-05T23:43:20.074Z,14.13
2018-06-05T23:45:51.981Z,15.43
2018-06-05T23:48:21.595Z,15.80
2018-06-05T23:50:50.842Z,14.67
2018-06-05T23:53:19.797Z,15.17
2018-06-05T23:55:48.762Z,14.17
2018-06-05T23:58:17.850Z,14.37
